sensor_id;sensor_type;location;lat;lon;timestamp;pressure;altitude;pressure_sealevel;temperature;humidity
36692;BME280;22678;52.052;4.242;2022-08-07T00:00:22;102779.13;;;18.71;54.20
36692;BME280;22678;52.052;4.242;2022-08-07T00:02:47;102786.19;;;18.72;54.38
36692;BME280;22678;52.052;4.242;2022-08-07T00:05:13;102782.75;;;18.66;54.48
36692;BME280;22678;52.052;4.242;2022-08-07T00:07:39;102766.94;;;18.49;54.74
36692;BME280;22678;52.052;4.242;2022-08-07T00:10:04;102784.56;;;18.59;54.65
36692;BME280;22678;52.052;4.242;2022-08-07T00:12:30;102743.06;;;18.38;54.72
36692;BME280;22678;52.052;4.242;2022-08-07T00:14:56;102791.75;;;18.54;54.78
36692;BME280;22678;52.052;4.242;2022-08-07T00:17:21;102768.81;;;18.41;55.00
36692;BME280;22678;52.052;4.242;2022-08-07T00:19:46;102768.84;;;18.37;55.22
36692;BME280;22678;52.052;4.242;2022-08-07T00:22:12;102791.00;;;18.41;55.33
36692;BME280;22678;52.052;4.242;2022-08-07T00:24:37;102784.81;;;18.37;55.50
36692;BME280;22678;52.052;4.242;2022-08-07T00:27:03;102783.09;;;18.33;55.55
36692;BME280;22678;52.052;4.242;2022-08-07T00:29:28;102772.53;;;18.21;55.83
36692;BME280;22678;52.052;4.242;2022-08-07T00:31:54;102772.53;;;18.24;56.01
36692;BME280;22678;52.052;4.242;2022-08-07T00:34:24;102701.91;;;17.77;56.05
36692;BME280;22678;52.052;4.242;2022-08-07T00:36:49;102775.22;;;18.19;56.00
36692;BME280;22678;52.052;4.242;2022-08-07T00:39:15;102763.78;;;18.10;56.24
36692;BME280;22678;52.052;4.242;2022-08-07T00:41:47;102766.50;;;18.03;56.34
36692;BME280;22678;52.052;4.242;2022-08-07T00:44:12;102764.72;;;18.02;56.35
36692;BME280;22678;52.052;4.242;2022-08-07T00:46:38;102756.81;;;17.96;56.46
36692;BME280;22678;52.052;4.242;2022-08-07T00:49:03;102775.38;;;18.02;56.69
36692;BME280;22678;52.052;4.242;2022-08-07T00:51:28;102773.63;;;17.98;56.58
36692;BME280;22678;52.052;4.242;2022-08-07T00:53:54;102755.09;;;17.83;56.80
36692;BME280;22678;52.052;4.242;2022-08-07T00:56:21;102765.69;;;17.89;56.73
36692;BME280;22678;52.052;4.242;2022-08-07T00:58:46;102745.41;;;17.76;56.90
36692;BME280;22678;52.052;4.242;2022-08-07T01:01:11;102736.56;;;17.71;57.14
36692;BME280;22678;52.052;4.242;2022-08-07T01:03:37;102758.69;;;17.79;57.20
36692;BME280;22678;52.052;4.242;2022-08-07T01:06:02;102756.94;;;17.75;57.42
36692;BME280;22678;52.052;4.242;2022-08-07T01:08:27;102756.94;;;17.73;57.54
36692;BME280;22678;52.052;4.242;2022-08-07T01:10:53;102747.28;;;17.60;57.62
36692;BME280;22678;52.052;4.242;2022-08-07T01:13:19;102728.72;;;17.55;57.61
36692;BME280;22678;52.052;4.242;2022-08-07T01:15:45;102745.53;;;17.57;57.82
36692;BME280;22678;52.052;4.242;2022-08-07T01:18:12;102736.72;;;17.49;57.59
36692;BME280;22678;52.052;4.242;2022-08-07T01:20:44;102747.34;;;17.54;57.97
36692;BME280;22678;52.052;4.242;2022-08-07T01:23:10;102750.06;;;17.43;58.28
36692;BME280;22678;52.052;4.242;2022-08-07T01:25:36;102755.38;;;17.43;58.31
36692;BME280;22678;52.052;4.242;2022-08-07T01:28:02;102752.75;;;17.40;58.42
36692;BME280;22678;52.052;4.242;2022-08-07T01:30:28;102762.50;;;17.41;58.23
36692;BME280;22678;52.052;4.242;2022-08-07T01:32:55;102752.78;;;17.32;58.46
36692;BME280;22678;52.052;4.242;2022-08-07T01:35:21;102751.91;;;17.28;58.65
36692;BME280;22678;52.052;4.242;2022-08-07T01:37:46;102752.84;;;17.26;58.75
36692;BME280;22678;52.052;4.242;2022-08-07T01:40:13;102752.81;;;17.27;58.76
36692;BME280;22678;52.052;4.242;2022-08-07T01:42:40;102743.13;;;17.17;59.10
36692;BME280;22678;52.052;4.242;2022-08-07T01:45:06;102756.41;;;17.20;58.93
36692;BME280;22678;52.052;4.242;2022-08-07T01:47:32;102755.50;;;17.18;59.06
36692;BME280;22678;52.052;4.242;2022-08-07T01:49:57;102752.91;;;17.09;59.06
36692;BME280;22678;52.052;4.242;2022-08-07T01:52:24;102746.72;;;17.08;59.02
36692;BME280;22678;52.052;4.242;2022-08-07T01:54:53;102753.81;;;17.05;59.18
36692;BME280;22678;52.052;4.242;2022-08-07T01:57:26;102750.28;;;17.03;59.48
36692;BME280;22678;52.052;4.242;2022-08-07T02:00:00;102745.88;;;16.95;59.48
36692;BME280;22678;52.052;4.242;2022-08-07T02:02:30;102739.72;;;16.90;59.54
36692;BME280;22678;52.052;4.242;2022-08-07T02:05:10;102737.94;;;16.89;60.14
36692;BME280;22678;52.052;4.242;2022-08-07T02:07:39;102743.25;;;16.89;59.63
36692;BME280;22678;52.052;4.242;2022-08-07T02:10:07;102736.16;;;16.82;60.06
36692;BME280;22678;52.052;4.242;2022-08-07T02:12:36;102748.56;;;16.83;60.03
36692;BME280;22678;52.052;4.242;2022-08-07T02:15:03;102735.31;;;16.78;60.06
36692;BME280;22678;52.052;4.242;2022-08-07T02:17:29;102719.41;;;16.66;60.39
36692;BME280;22678;52.052;4.242;2022-08-07T02:19:57;102732.66;;;16.74;60.39
36692;BME280;22678;52.052;4.242;2022-08-07T02:22:24;102732.66;;;16.71;60.37
36692;BME280;22678;52.052;4.242;2022-08-07T02:24:51;102711.47;;;16.57;60.54
36692;BME280;22678;52.052;4.242;2022-08-07T02:27:20;102717.66;;;16.59;60.36
36692;BME280;22678;52.052;4.242;2022-08-07T02:29:48;102719.44;;;16.60;60.31
36692;BME280;22678;52.052;4.242;2022-08-07T02:32:15;102717.69;;;16.48;60.61
36692;BME280;22678;52.052;4.242;2022-08-07T02:34:43;102721.22;;;16.52;60.70
36692;BME280;22678;52.052;4.242;2022-08-07T02:37:10;102724.78;;;16.49;60.95
36692;BME280;22678;52.052;4.242;2022-08-07T02:39:38;102732.75;;;16.49;61.06
36692;BME280;22678;52.052;4.242;2022-08-07T02:42:05;102732.78;;;16.44;61.13
36692;BME280;22678;52.052;4.242;2022-08-07T02:44:31;102725.72;;;16.36;60.94
36692;BME280;22678;52.052;4.242;2022-08-07T02:47:00;102731.03;;;16.36;61.17
36692;BME280;22678;52.052;4.242;2022-08-07T02:49:27;102724.81;;;16.31;61.19
36692;BME280;22678;52.052;4.242;2022-08-07T02:51:54;102723.97;;;16.27;61.34
36692;BME280;22678;52.052;4.242;2022-08-07T02:54:23;102714.25;;;16.18;61.57
36692;BME280;22678;52.052;4.242;2022-08-07T02:56:52;102715.09;;;16.20;61.50
36692;BME280;22678;52.052;4.242;2022-08-07T02:59:20;102718.63;;;16.22;61.71
36692;BME280;22678;52.052;4.242;2022-08-07T03:01:48;102718.63;;;16.19;61.64
36692;BME280;22678;52.052;4.242;2022-08-07T03:04:14;102709.81;;;16.11;61.84
36692;BME280;22678;52.052;4.242;2022-08-07T03:06:46;102719.56;;;16.14;61.99
36692;BME280;22678;52.052;4.242;2022-08-07T03:09:12;102708.94;;;16.07;62.05
36692;BME280;22678;52.052;4.242;2022-08-07T03:11:39;102709.81;;;16.02;62.10
36692;BME280;22678;52.052;4.242;2022-08-07T03:14:05;102713.38;;;16.01;62.07
36692;BME280;22678;52.052;4.242;2022-08-07T03:16:31;102708.06;;;15.94;62.13
36692;BME280;22678;52.052;4.242;2022-08-07T03:18:58;102713.38;;;15.96;62.80
36692;BME280;22678;52.052;4.242;2022-08-07T03:21:24;102714.25;;;15.92;62.35
36692;BME280;22678;52.052;4.242;2022-08-07T03:23:53;102708.97;;;15.86;62.42
36692;BME280;22678;52.052;4.242;2022-08-07T03:26:20;102714.25;;;15.92;62.65
36692;BME280;22678;52.052;4.242;2022-08-07T03:28:47;102695.69;;;15.78;62.59
36692;BME280;22678;52.052;4.242;2022-08-07T03:31:13;102712.50;;;15.83;62.45
36692;BME280;22678;52.052;4.242;2022-08-07T03:33:59;102707.16;;;15.77;62.75
36692;BME280;22678;52.052;4.242;2022-08-07T03:36:27;102696.56;;;15.71;62.87
36692;BME280;22678;52.052;4.242;2022-08-07T03:38:56;102700.97;;;15.69;62.83
36692;BME280;22678;52.052;4.242;2022-08-07T03:41:23;102710.69;;;15.68;62.65
36692;BME280;22678;52.052;4.242;2022-08-07T03:43:48;102704.50;;;15.65;62.99
36692;BME280;22678;52.052;4.242;2022-08-07T03:46:14;102690.38;;;15.56;63.00
36692;BME280;22678;52.052;4.242;2022-08-07T03:48:40;102708.06;;;15.64;63.33
36692;BME280;22678;52.052;4.242;2022-08-07T03:51:06;102690.38;;;15.53;63.30
36692;BME280;22678;52.052;4.242;2022-08-07T03:53:32;102704.50;;;15.55;63.17
36692;BME280;22678;52.052;4.242;2022-08-07T03:55:58;102697.41;;;15.54;63.26
36692;BME280;22678;52.052;4.242;2022-08-07T03:58:25;102694.75;;;15.48;63.25
36692;BME280;22678;52.052;4.242;2022-08-07T04:00:53;102684.16;;;15.45;63.35
36692;BME280;22678;52.052;4.242;2022-08-07T04:03:20;102704.50;;;15.48;63.29
36692;BME280;22678;52.052;4.242;2022-08-07T04:05:46;102704.50;;;15.46;63.35
36692;BME280;22678;52.052;4.242;2022-08-07T04:08:13;102673.56;;;15.33;63.50
36692;BME280;22678;52.052;4.242;2022-08-07T04:10:40;102695.63;;;15.41;63.73
36692;BME280;22678;52.052;4.242;2022-08-07T04:13:06;102704.47;;;15.37;63.61
36692;BME280;22678;52.052;4.242;2022-08-07T04:15:32;102693.84;;;15.31;63.70
36692;BME280;22678;52.052;4.242;2022-08-07T04:17:57;102692.06;;;15.28;63.97
36692;BME280;22678;52.052;4.242;2022-08-07T04:20:23;102694.75;;;15.31;63.91
36692;BME280;22678;52.052;4.242;2022-08-07T04:22:49;102690.31;;;15.22;63.79
36692;BME280;22678;52.052;4.242;2022-08-07T04:25:16;102692.97;;;15.19;64.14
36692;BME280;22678;52.052;4.242;2022-08-07T04:27:42;102708.88;;;15.21;64.04
36692;BME280;22678;52.052;4.242;2022-08-07T04:30:08;102708.84;;;15.16;64.17
36692;BME280;22678;52.052;4.242;2022-08-07T04:32:33;102711.53;;;15.19;64.39
36692;BME280;22678;52.052;4.242;2022-08-07T04:35:01;102717.69;;;15.18;64.24
36692;BME280;22678;52.052;4.242;2022-08-07T04:37:26;102719.44;;;15.16;64.61
36692;BME280;22678;52.052;4.242;2022-08-07T04:39:52;102722.09;;;15.15;64.79
36692;BME280;22678;52.052;4.242;2022-08-07T04:42:17;102722.06;;;15.10;64.59
36692;BME280;22678;52.052;4.242;2022-08-07T04:44:42;102727.38;;;15.12;64.69
36692;BME280;22678;52.052;4.242;2022-08-07T04:47:28;102721.19;;;15.08;64.90
36692;BME280;22678;52.052;4.242;2022-08-07T04:50:06;102718.56;;;15.11;64.85
36692;BME280;22678;52.052;4.242;2022-08-07T04:53:12;102724.72;;;15.10;65.29
36692;BME280;22678;52.052;4.242;2022-08-07T05:00:50;102729.13;;;15.05;65.47
36692;BME280;22678;52.052;4.242;2022-08-07T05:06:16;102737.09;;;15.05;65.53
36692;BME280;22678;52.052;4.242;2022-08-07T05:11:24;102738.81;;;15.03;65.87
36692;BME280;22678;52.052;4.242;2022-08-07T05:14:13;102734.44;;;14.99;66.14
36692;BME280;22678;52.052;4.242;2022-08-07T05:16:42;102736.19;;;15.01;66.06
36692;BME280;22678;52.052;4.242;2022-08-07T05:19:14;102720.25;;;14.94;66.25
36692;BME280;22678;52.052;4.242;2022-08-07T05:21:48;102733.53;;;15.03;66.27
36692;BME280;22678;52.052;4.242;2022-08-07T05:24:15;102727.34;;;14.98;66.39
36692;BME280;22678;52.052;4.242;2022-08-07T05:26:42;102737.06;;;14.99;66.66
36692;BME280;22678;52.052;4.242;2022-08-07T05:29:09;102740.59;;;15.01;66.81
36692;BME280;22678;52.052;4.242;2022-08-07T05:31:39;102733.53;;;15.00;66.47
36692;BME280;22678;52.052;4.242;2022-08-07T05:34:08;102744.19;;;15.07;66.73
36692;BME280;22678;52.052;4.242;2022-08-07T05:36:35;102743.25;;;15.04;66.81
36692;BME280;22678;52.052;4.242;2022-08-07T05:39:02;102741.53;;;15.09;67.02
36692;BME280;22678;52.052;4.242;2022-08-07T05:41:28;102749.47;;;15.09;67.03
36692;BME280;22678;52.052;4.242;2022-08-07T05:43:54;102739.78;;;15.17;67.12
36692;BME280;22678;52.052;4.242;2022-08-07T05:46:21;102744.22;;;15.37;67.01
36692;BME280;22678;52.052;4.242;2022-08-07T05:48:48;102723.94;;;15.51;67.13
36692;BME280;22678;52.052;4.242;2022-08-07T05:51:14;102739.91;;;15.82;66.70
36692;BME280;22678;52.052;4.242;2022-08-07T05:53:40;102731.94;;;16.11;66.66
36692;BME280;22678;52.052;4.242;2022-08-07T05:56:07;102717.72;;;16.31;66.26
36692;BME280;22678;52.052;4.242;2022-08-07T05:58:34;102737.97;;;16.71;66.07
36692;BME280;22678;52.052;4.242;2022-08-07T06:01:00;102736.16;;;16.97;65.72
36692;BME280;22678;52.052;4.242;2022-08-07T06:03:28;102744.84;;;17.26;65.28
36692;BME280;22678;52.052;4.242;2022-08-07T06:05:55;102748.22;;;17.54;64.81
36692;BME280;22678;52.052;4.242;2022-08-07T06:08:21;102740.09;;;17.76;64.03
36692;BME280;22678;52.052;4.242;2022-08-07T06:10:47;102734.59;;;17.97;63.24
36692;BME280;22678;52.052;4.242;2022-08-07T06:13:13;102746.88;;;18.15;62.62
36692;BME280;22678;52.052;4.242;2022-08-07T06:15:39;102747.56;;;18.34;61.96
36692;BME280;22678;52.052;4.242;2022-08-07T06:18:05;102735.03;;;18.43;61.26
36692;BME280;22678;52.052;4.242;2022-08-07T06:20:34;102740.16;;;18.61;60.55
36692;BME280;22678;52.052;4.242;2022-08-07T06:23:01;102745.28;;;18.78;60.17
36692;BME280;22678;52.052;4.242;2022-08-07T06:25:28;102739.88;;;18.89;59.63
36692;BME280;22678;52.052;4.242;2022-08-07T06:28:04;102742.28;;;19.07;59.06
36692;BME280;22678;52.052;4.242;2022-08-07T06:30:29;102742.09;;;19.21;58.52
36692;BME280;22678;52.052;4.242;2022-08-07T06:32:55;102744.59;;;19.32;58.21
36692;BME280;22678;52.052;4.242;2022-08-07T06:35:20;102753.31;;;19.45;57.68
36692;BME280;22678;52.052;4.242;2022-08-07T06:37:45;102756.63;;;19.61;57.27
36692;BME280;22678;52.052;4.242;2022-08-07T06:40:11;102744.06;;;19.66;56.91
36692;BME280;22678;52.052;4.242;2022-08-07T06:42:38;102764.16;;;19.93;56.28
36692;BME280;22678;52.052;4.242;2022-08-07T06:45:09;102759.44;;;20.06;55.59
36692;BME280;22678;52.052;4.242;2022-08-07T06:47:36;102762.00;;;20.14;55.28
36692;BME280;22678;52.052;4.242;2022-08-07T06:50:01;102763.44;;;20.32;54.49
36692;BME280;22678;52.052;4.242;2022-08-07T06:52:30;102752.66;;;20.38;53.13
36692;BME280;22678;52.052;4.242;2022-08-07T06:54:58;102761.28;;;20.53;53.17
36692;BME280;22678;52.052;4.242;2022-08-07T06:57:24;102762.88;;;20.63;52.78
36692;BME280;22678;52.052;4.242;2022-08-07T06:59:51;102758.38;;;20.63;51.85
36692;BME280;22678;52.052;4.242;2022-08-07T07:02:19;102763.44;;;20.80;51.39
36692;BME280;22678;52.052;4.242;2022-08-07T07:04:46;102763.16;;;20.93;50.91
36692;BME280;22678;52.052;4.242;2022-08-07T07:07:12;102759.44;;;21.00;50.69
36692;BME280;22678;52.052;4.242;2022-08-07T07:09:43;102756.53;;;21.11;50.44
36692;BME280;22678;52.052;4.242;2022-08-07T07:12:21;102754.63;;;21.17;49.75
36692;BME280;22678;52.052;4.242;2022-08-07T07:15:13;102744.47;;;21.32;49.49
36692;BME280;22678;52.052;4.242;2022-08-07T07:17:48;102755.84;;;21.42;49.63
36692;BME280;22678;52.052;4.242;2022-08-07T07:20:17;102753.72;;;21.58;49.25
36692;BME280;22678;52.052;4.242;2022-08-07T07:22:43;102749.88;;;21.68;49.20
36692;BME280;22678;52.052;4.242;2022-08-07T07:25:10;102757.56;;;21.83;48.69
36692;BME280;22678;52.052;4.242;2022-08-07T07:27:41;102759.88;;;21.97;48.71
36692;BME280;22678;52.052;4.242;2022-08-07T07:30:10;102749.81;;;22.07;47.95
36692;BME280;22678;52.052;4.242;2022-08-07T07:32:37;102752.19;;;22.18;48.09
36692;BME280;22678;52.052;4.242;2022-08-07T07:35:05;102753.56;;;22.34;47.35
36692;BME280;22678;52.052;4.242;2022-08-07T07:37:32;102738.44;;;22.32;47.06
36692;BME280;22678;52.052;4.242;2022-08-07T07:40:01;102748.84;;;22.44;46.60
36692;BME280;22678;52.052;4.242;2022-08-07T07:42:29;102734.50;;;22.45;46.49
36692;BME280;22678;52.052;4.242;2022-08-07T07:44:58;102735.13;;;22.55;46.05
36692;BME280;22678;52.052;4.242;2022-08-07T07:47:26;102733.97;;;22.64;45.45
36692;BME280;22678;52.052;4.242;2022-08-07T07:49:53;102741.69;;;22.74;45.24
36692;BME280;22678;52.052;4.242;2022-08-07T07:52:20;102746.00;;;22.80;44.81
36692;BME280;22678;52.052;4.242;2022-08-07T07:54:47;102738.72;;;22.85;45.11
36692;BME280;22678;52.052;4.242;2022-08-07T07:57:14;102739.28;;;22.95;44.49
36692;BME280;22678;52.052;4.242;2022-08-07T07:59:42;102739.81;;;23.08;44.43
36692;BME280;22678;52.052;4.242;2022-08-07T08:02:10;102725.31;;;23.15;43.79
36692;BME280;22678;52.052;4.242;2022-08-07T08:04:36;102737.41;;;23.29;43.09
36692;BME280;22678;52.052;4.242;2022-08-07T08:07:01;102728.34;;;23.33;42.71
36692;BME280;22678;52.052;4.242;2022-08-07T08:09:28;102716.56;;;23.37;42.48
36692;BME280;22678;52.052;4.242;2022-08-07T08:11:54;102732.06;;;23.55;42.00
36692;BME280;22678;52.052;4.242;2022-08-07T08:14:20;102718.63;;;23.55;42.13
36692;BME280;22678;52.052;4.242;2022-08-07T08:16:46;102728.66;;;23.77;42.32
36692;BME280;22678;52.052;4.242;2022-08-07T08:19:14;102729.94;;;23.93;42.09
36692;BME280;22678;52.052;4.242;2022-08-07T08:21:45;102713.41;;;24.06;41.79
36692;BME280;22678;52.052;4.242;2022-08-07T08:24:35;102733.13;;;24.30;41.45
36692;BME280;22678;52.052;4.242;2022-08-07T08:27:21;102728.63;;;24.30;40.95
36692;BME280;22678;52.052;4.242;2022-08-07T08:30:02;102735.22;;;24.47;41.15
36692;BME280;22678;52.052;4.242;2022-08-07T08:32:30;102734.13;;;24.51;40.70
36692;BME280;22678;52.052;4.242;2022-08-07T08:34:57;102720.69;;;24.51;40.37
36692;BME280;22678;52.052;4.242;2022-08-07T08:37:24;102739.47;;;24.78;40.82
36692;BME280;22678;52.052;4.242;2022-08-07T08:39:52;102737.09;;;24.92;40.54
36692;BME280;22678;52.052;4.242;2022-08-07T08:42:36;102736.75;;;25.01;40.05
36692;BME280;22678;52.052;4.242;2022-08-07T08:45:45;102736.31;;;25.12;39.59
36692;BME280;22678;52.052;4.242;2022-08-07T08:48:20;102732.75;;;25.12;38.97
36692;BME280;22678;52.052;4.242;2022-08-07T08:50:51;102733.31;;;25.20;39.32
36692;BME280;22678;52.052;4.242;2022-08-07T08:56:32;102739.56;;;25.44;39.36
36692;BME280;22678;52.052;4.242;2022-08-07T08:59:05;102735.69;;;25.51;39.24
36692;BME280;22678;52.052;4.242;2022-08-07T09:01:49;102742.53;;;25.59;38.82
36692;BME280;22678;52.052;4.242;2022-08-07T09:10:09;102741.06;;;25.74;38.35
36692;BME280;22678;52.052;4.242;2022-08-07T09:18:55;102736.38;;;25.99;38.01
36692;BME280;22678;52.052;4.242;2022-08-07T09:21:36;102727.22;;;26.03;37.72
36692;BME280;22678;52.052;4.242;2022-08-07T09:29:28;102730.06;;;26.21;37.40
36692;BME280;22678;52.052;4.242;2022-08-07T09:32:23;102742.31;;;26.28;36.85
36692;BME280;22678;52.052;4.242;2022-08-07T09:37:43;102740.13;;;26.36;36.44
36692;BME280;22678;52.052;4.242;2022-08-07T09:40:21;102729.75;;;26.48;36.59
36692;BME280;22678;52.052;4.242;2022-08-07T09:45:48;102728.06;;;26.64;36.30
36692;BME280;22678;52.052;4.242;2022-08-07T09:48:26;102728.41;;;26.77;35.93
36692;BME280;22678;52.052;4.242;2022-08-07T09:51:14;102723.44;;;26.87;35.84
36692;BME280;22678;52.052;4.242;2022-08-07T09:53:44;102716.00;;;26.92;35.56
36692;BME280;22678;52.052;4.242;2022-08-07T09:59:03;102715.69;;;27.17;35.84
36692;BME280;22678;52.052;4.242;2022-08-07T10:07:03;102719.44;;;27.51;33.69
36692;BME280;22678;52.052;4.242;2022-08-07T10:09:44;102711.34;;;27.51;33.68
36692;BME280;22678;52.052;4.242;2022-08-07T10:15:40;102697.22;;;27.64;33.26
36692;BME280;22678;52.052;4.242;2022-08-07T10:21:23;102698.88;;;27.84;32.82
36692;BME280;22678;52.052;4.242;2022-08-07T10:40:30;102683.47;;;27.86;32.92
36692;BME280;22678;52.052;4.242;2022-08-07T10:43:16;102671.06;;;27.82;32.87
36692;BME280;22678;52.052;4.242;2022-08-07T10:45:57;102660.00;;;27.86;33.49
36692;BME280;22678;52.052;4.242;2022-08-07T10:48:40;102675.03;;;28.09;33.70
36692;BME280;22678;52.052;4.242;2022-08-07T10:51:16;102672.38;;;28.25;33.35
36692;BME280;22678;52.052;4.242;2022-08-07T10:53:56;102667.06;;;28.40;32.57
36692;BME280;22678;52.052;4.242;2022-08-07T10:59:32;102668.22;;;28.52;32.42
36692;BME280;22678;52.052;4.242;2022-08-07T11:02:15;102670.59;;;28.58;32.28
36692;BME280;22678;52.052;4.242;2022-08-07T11:07:44;102666.19;;;28.73;33.09
36692;BME280;22678;52.052;4.242;2022-08-07T11:10:23;102659.78;;;28.74;32.59
36692;BME280;22678;52.052;4.242;2022-08-07T11:12:58;102658.47;;;28.81;32.31
36692;BME280;22678;52.052;4.242;2022-08-07T11:15:29;102655.09;;;28.77;32.22
36692;BME280;22678;52.052;4.242;2022-08-07T11:17:58;102655.34;;;28.89;32.43
36692;BME280;22678;52.052;4.242;2022-08-07T11:20:47;102648.19;;;28.88;32.18
36692;BME280;22678;52.052;4.242;2022-08-07T11:23:24;102644.53;;;28.89;31.79
36692;BME280;22678;52.052;4.242;2022-08-07T11:26:17;102652.34;;;29.09;31.83
36692;BME280;22678;52.052;4.242;2022-08-07T11:28:49;102647.81;;;29.10;31.85
36692;BME280;22678;52.052;4.242;2022-08-07T11:31:37;102649.63;;;29.09;31.28
36692;BME280;22678;52.052;4.242;2022-08-07T11:34:16;102645.50;;;29.18;32.03
36692;BME280;22678;52.052;4.242;2022-08-07T11:37:00;102646.06;;;29.25;31.88
36692;BME280;22678;52.052;4.242;2022-08-07T11:42:18;102638.50;;;29.30;31.62
36692;BME280;22678;52.052;4.242;2022-08-07T11:44:53;102642.59;;;29.37;31.92
36692;BME280;22678;52.052;4.242;2022-08-07T11:53:01;102633.94;;;29.46;31.51
36692;BME280;22678;52.052;4.242;2022-08-07T11:58:43;102627.44;;;29.49;32.36
36692;BME280;22678;52.052;4.242;2022-08-07T12:04:09;102626.00;;;29.58;32.39
36692;BME280;22678;52.052;4.242;2022-08-07T12:06:44;102626.63;;;29.63;32.13
36692;BME280;22678;52.052;4.242;2022-08-07T12:09:16;102620.06;;;29.67;31.70
36692;BME280;22678;52.052;4.242;2022-08-07T12:11:56;102615.28;;;29.70;31.85
36692;BME280;22678;52.052;4.242;2022-08-07T12:14:28;102614.56;;;29.83;31.96
36692;BME280;22678;52.052;4.242;2022-08-07T12:17:02;102626.66;;;29.92;31.52
36692;BME280;22678;52.052;4.242;2022-08-07T12:22:22;102626.69;;;30.06;31.35
36692;BME280;22678;52.052;4.242;2022-08-07T12:25:08;102613.13;;;30.06;31.82
36692;BME280;22678;52.052;4.242;2022-08-07T12:27:59;102628.63;;;30.18;31.16
36692;BME280;22678;52.052;4.242;2022-08-07T12:30:31;102628.91;;;30.28;31.46
36692;BME280;22678;52.052;4.242;2022-08-07T12:33:01;102620.34;;;30.34;31.48
36692;BME280;22678;52.052;4.242;2022-08-07T12:35:28;102628.13;;;30.40;31.67
36692;BME280;22678;52.052;4.242;2022-08-07T12:37:56;102620.69;;;30.44;31.52
36692;BME280;22678;52.052;4.242;2022-08-07T12:40:31;102611.56;;;30.45;30.75
36692;BME280;22678;52.052;4.242;2022-08-07T12:43:01;102623.38;;;30.44;31.10
36692;BME280;22678;52.052;4.242;2022-08-07T12:45:44;102626.31;;;30.41;31.17
36692;BME280;22678;52.052;4.242;2022-08-07T12:48:52;102623.84;;;30.36;31.08
36692;BME280;22678;52.052;4.242;2022-08-07T12:51:23;102605.84;;;30.21;30.78
36692;BME280;22678;52.052;4.242;2022-08-07T12:53:56;102613.91;;;30.08;30.67
36692;BME280;22678;52.052;4.242;2022-08-07T12:56:38;102600.16;;;29.97;30.45
36692;BME280;22678;52.052;4.242;2022-08-07T12:59:07;102609.66;;;30.04;31.16
36692;BME280;22678;52.052;4.242;2022-08-07T13:04:24;102613.31;;;30.32;31.03
36692;BME280;22678;52.052;4.242;2022-08-07T13:18:46;102615.56;;;30.67;30.15
36692;BME280;22678;52.052;4.242;2022-08-07T13:24:26;102584.13;;;30.77;29.98
36692;BME280;22678;52.052;4.242;2022-08-07T13:27:08;102596.69;;;30.92;29.49
36692;BME280;22678;52.052;4.242;2022-08-07T13:32:09;102583.31;;;30.89;29.22
36692;BME280;22678;52.052;4.242;2022-08-07T13:34:53;102577.88;;;30.89;29.79
36692;BME280;22678;52.052;4.242;2022-08-07T13:39:58;102588.94;;;31.14;29.60
36692;BME280;22678;52.052;4.242;2022-08-07T13:42:26;102585.56;;;31.10;29.50
36692;BME280;22678;52.052;4.242;2022-08-07T13:44:54;102577.84;;;31.04;29.31
36692;BME280;22678;52.052;4.242;2022-08-07T13:47:25;102578.38;;;31.09;29.22
36692;BME280;22678;52.052;4.242;2022-08-07T13:49:53;102578.97;;;31.14;29.11
36692;BME280;22678;52.052;4.242;2022-08-07T13:52:22;102589.94;;;31.13;28.98
36692;BME280;22678;52.052;4.242;2022-08-07T13:54:48;102583.19;;;31.05;28.62
36692;BME280;22678;52.052;4.242;2022-08-07T13:57:14;102593.16;;;31.05;28.74
36692;BME280;22678;52.052;4.242;2022-08-07T13:59:44;102587.72;;;31.05;28.64
36692;BME280;22678;52.052;4.242;2022-08-07T14:02:12;102586.22;;;31.01;28.91
36692;BME280;22678;52.052;4.242;2022-08-07T14:07:08;102576.34;;;30.85;28.87
36692;BME280;22678;52.052;4.242;2022-08-07T14:09:36;102581.34;;;30.91;28.99
36692;BME280;22678;52.052;4.242;2022-08-07T14:12:06;102578.31;;;30.96;29.06
36692;BME280;22678;52.052;4.242;2022-08-07T14:14:42;102584.47;;;31.00;29.17
36692;BME280;22678;52.052;4.242;2022-08-07T14:17:13;102597.22;;;30.98;29.40
36692;BME280;22678;52.052;4.242;2022-08-07T14:19:54;102595.56;;;30.82;29.53
36692;BME280;22678;52.052;4.242;2022-08-07T14:22:30;102589.72;;;30.61;29.51
36692;BME280;22678;52.052;4.242;2022-08-07T14:25:16;102597.00;;;30.46;29.97
36692;BME280;22678;52.052;4.242;2022-08-07T14:27:47;102597.88;;;30.32;30.17
36692;BME280;22678;52.052;4.242;2022-08-07T14:30:15;102600.59;;;30.32;30.60
36692;BME280;22678;52.052;4.242;2022-08-07T14:32:44;102593.31;;;30.33;30.18
36692;BME280;22678;52.052;4.242;2022-08-07T14:35:18;102586.47;;;30.27;30.74
36692;BME280;22678;52.052;4.242;2022-08-07T14:37:48;102582.09;;;30.25;31.09
36692;BME280;22678;52.052;4.242;2022-08-07T14:40:15;102586.34;;;30.43;30.89
36692;BME280;22678;52.052;4.242;2022-08-07T14:42:45;102578.88;;;30.32;30.82
36692;BME280;22678;52.052;4.242;2022-08-07T14:45:12;102577.09;;;30.18;30.70
36692;BME280;22678;52.052;4.242;2022-08-07T14:47:40;102579.50;;;30.09;30.89
36692;BME280;22678;52.052;4.242;2022-08-07T14:50:11;102583.28;;;30.06;31.17
36692;BME280;22678;52.052;4.242;2022-08-07T14:52:45;102583.47;;;30.03;31.19
36692;BME280;22678;52.052;4.242;2022-08-07T14:55:13;102576.91;;;30.07;31.55
36692;BME280;22678;52.052;4.242;2022-08-07T14:57:39;102583.56;;;30.16;31.29
36692;BME280;22678;52.052;4.242;2022-08-07T15:00:05;102570.72;;;30.05;31.35
36692;BME280;22678;52.052;4.242;2022-08-07T15:02:35;102569.72;;;29.92;31.37